Time;durP1;ratioP1;P1;durP2;ratioP2;P2;SDS_P1;SDS_P2;PMS_P1;PMS_P2;Temp;Humidity;BMP_temperature;BMP_pressure;BME280_temperature;BME280_humidity;BME280_pressure;Samples;Min_cycle;Max_cycle;Signal;HPM_P1;HPM_P2
2024/01/09 00:01:44;;;;;;;43.25;19.35;;;-6.30;99.90;;;;;;4986968;28;20038;-79
2024/01/09 00:04:34;;;;;;;35.47;18.25;;;-6.30;99.90;;;;;;4984704;28;20049;-79
2024/01/09 00:07:26;;;;;;;38.55;19.30;;;-6.20;99.90;;;;;;4970769;28;20050;-79
2024/01/09 00:10:19;;;;;;;35.20;17.45;;;-6.30;1.00;;;;;;4986612;28;20062;-78
2024/01/09 00:13:08;;;;;;;40.38;19.77;;;-6.30;99.90;;;;;;4976906;28;20074;-78
2024/01/09 00:15:58;;;;;;;33.08;16.95;;;-6.40;1.00;;;;;;4999177;28;20065;-79
2024/01/09 00:18:53;;;;;;;36.72;17.52;;;-6.40;1.00;;;;;;4985551;28;20057;-81
2024/01/09 00:21:46;;;;;;;34.75;18.88;;;-6.40;57.30;;;;;;4998092;28;20443;-81
2024/01/09 00:24:40;;;;;;;36.53;17.38;;;-6.40;1.00;;;;;;4974363;28;20046;-79
2024/01/09 00:27:31;;;;;;;;;;;-6.40;99.90;;;;;;4975216;28;20037;-80
2024/01/09 00:30:21;;;;;;;36.38;16.48;;;-6.40;99.90;;;;;;5000264;28;19980;-80
2024/01/09 00:33:08;;;;;;;35.85;17.45;;;-6.50;99.90;;;;;;5000472;28;20050;-78
2024/01/09 00:35:58;;;;;;;34.17;16.65;;;-6.60;23.60;;;;;;4986118;28;20056;-79
2024/01/09 00:38:47;;;;;;;41.85;17.38;;;-6.60;1.00;;;;;;4983659;28;20049;-79
2024/01/09 00:41:42;;;;;;;33.72;16.80;;;-6.60;81.90;;;;;;4990573;28;20049;-80
2024/01/09 00:44:30;;;;;;;37.58;18.13;;;-6.60;1.00;;;;;;4984949;28;20065;-81
2024/01/09 00:47:20;;;;;;;36.45;16.83;;;-6.70;1.00;;;;;;4988713;28;20046;-82
2024/01/09 00:50:09;;;;;;;40.20;18.13;;;-6.80;1.00;;;;;;4975357;28;20046;-78
2024/01/09 00:52:56;;;;;;;39.38;17.38;;;-6.70;1.00;;;;;;5000748;28;20042;-81
2024/01/09 00:55:51;;;;;;;35.83;18.02;;;-6.70;1.00;;;;;;4981932;28;20093;-80
2024/01/09 00:58:45;;;;;;;40.67;17.60;;;-6.70;99.90;;;;;;4969037;28;20125;-81
2024/01/09 01:01:42;;;;;;;37.35;17.17;;;-6.70;99.90;;;;;;4987223;28;20102;-79
2024/01/09 01:04:29;;;;;;;37.92;17.45;;;-6.80;99.90;;;;;;4979190;28;20062;-79
2024/01/09 01:07:22;;;;;;;34.88;16.67;;;-6.70;1.00;;;;;;4987812;28;20038;-77
2024/01/09 01:10:17;;;;;;;;;;;-6.80;99.90;;;;;;4979015;28;20054;-76
2024/01/09 01:13:09;;;;;;;33.47;15.98;;;-6.90;80.00;;;;;;4983107;28;19981;-78
2024/01/09 01:15:57;;;;;;;31.58;17.38;;;-6.80;99.90;;;;;;4985748;28;20154;-82
2024/01/09 01:18:44;;;;;;;33.13;16.13;;;-6.80;91.90;;;;;;4967452;28;20066;-80
2024/01/09 01:21:33;;;;;;;42.00;17.90;;;-6.80;99.90;;;;;;4989985;28;20145;-78
2024/01/09 01:24:29;;;;;;;34.70;16.85;;;-6.90;40.10;;;;;;4996170;28;20121;-80
2024/01/09 01:27:24;;;;;;;31.58;16.45;;;-6.90;99.90;;;;;;4990818;28;20116;-81
2024/01/09 01:30:20;;;;;;;35.95;17.42;;;-6.90;1.00;;;;;;4970660;28;20055;-81
2024/01/09 01:33:15;;;;;;;36.83;18.00;;;-7.00;1.00;;;;;;4984007;28;20378;-81
2024/01/09 01:36:18;;;;;;;37.45;16.95;;;-7.00;27.80;;;;;;4984170;28;20030;-77
2024/01/09 01:39:27;;;;;;;33.17;16.75;;;-6.90;1.00;;;;;;4999538;28;20038;-76
2024/01/09 01:42:15;;;;;;;32.08;15.90;;;-7.00;99.90;;;;;;5010330;28;20030;-78
2024/01/09 01:45:13;;;;;;;35.17;17.52;;;-7.10;99.90;;;;;;4995640;28;20077;-80
2024/01/09 01:48:07;;;;;;;36.53;17.25;;;-7.10;99.90;;;;;;4985697;28;20051;-80
2024/01/09 01:51:09;;;;;;;36.13;16.90;;;-7.10;91.90;;;;;;4980548;28;20529;-79
2024/01/09 01:53:56;;;;;;;34.03;16.60;;;-7.00;99.90;;;;;;4977235;28;20061;-81
2024/01/09 01:56:47;;;;;;;38.15;17.45;;;-6.90;1.00;;;;;;4981212;28;20452;-78
2024/01/09 01:59:42;;;;;;;36.38;17.77;;;-7.00;99.90;;;;;;4983673;28;20042;-79
2024/01/09 02:02:36;;;;;;;39.05;17.13;;;-7.00;99.90;;;;;;4982707;28;20074;-80
2024/01/09 02:05:25;;;;;;;37.97;16.83;;;-7.10;1.00;;;;;;4981509;28;20077;-80
2024/01/09 02:08:22;;;;;;;40.35;17.02;;;-7.10;1.00;;;;;;4981188;28;20802;-81
2024/01/09 02:11:12;;;;;;;38.30;16.98;;;-7.10;2.90;;;;;;4964414;28;20509;-80
2024/01/09 02:14:00;;;;;;;35.88;17.83;;;-7.10;1.00;;;;;;4982937;28;20050;-79
2024/01/09 02:16:49;;;;;;;36.58;16.65;;;-7.20;1.00;;;;;;4976750;28;20806;-80
2024/01/09 02:19:37;;;;;;;35.70;16.67;;;-7.10;99.90;;;;;;4974357;28;20051;-81
2024/01/09 02:22:24;;;;;;;35.00;18.17;;;-7.10;99.90;;;;;;4987012;28;20488;-80
2024/01/09 02:25:12;;;;;;;36.00;17.02;;;-7.20;1.00;;;;;;4981136;28;20111;-81
2024/01/09 02:28:14;;;;;;;33.75;15.93;;;-7.20;1.00;;;;;;4980502;28;20050;-80
2024/01/09 02:31:04;;;;;;;33.80;16.35;;;-7.20;99.90;;;;;;4977567;28;20060;-81
2024/01/09 02:33:58;;;;;;;35.28;17.25;;;-7.20;99.90;;;;;;4972475;28;20057;-81
2024/01/09 02:36:45;;;;;;;32.92;15.55;;;-7.20;99.90;;;;;;4982652;28;20188;-77
2024/01/09 02:39:33;;;;;;;35.25;16.60;;;-7.20;99.90;;;;;;4984819;28;20189;-78
2024/01/09 02:42:23;;;;;;;35.35;16.67;;;-7.10;1.00;;;;;;4994656;28;20038;-78
2024/01/09 02:45:13;;;;;;;37.80;16.05;;;-7.20;1.00;;;;;;4988636;28;20046;-81
2024/01/09 02:48:01;;;;;;;31.20;16.50;;;-7.20;1.00;;;;;;4985551;28;20050;-82
2024/01/09 02:50:50;;;;;;;38.83;18.30;;;-7.10;99.90;;;;;;4983173;28;20081;-79
2024/01/09 02:53:37;;;;;;;37.75;17.08;;;-7.20;99.90;;;;;;4986918;28;20062;-80
2024/01/09 02:56:25;;;;;;;38.65;16.40;;;-7.20;99.90;;;;;;4988968;28;20105;-80
2024/01/09 02:59:14;;;;;;;34.08;15.48;;;-7.30;99.90;;;;;;4966775;28;20075;-80
2024/01/09 03:02:07;;;;;;;34.60;16.73;;;-7.30;99.90;;;;;;4984108;28;20081;-80
2024/01/09 03:04:59;;;;;;;39.13;16.50;;;-7.30;99.90;;;;;;4980014;28;20042;-78
2024/01/09 03:07:53;;;;;;;33.70;16.73;;;-7.40;1.00;;;;;;4979413;28;20053;-80
2024/01/09 03:10:45;;;;;;;37.13;15.98;;;-7.30;1.00;;;;;;4972424;28;20049;-77
2024/01/09 03:13:35;;;;;;;37.08;16.20;;;-7.30;99.90;;;;;;4982931;28;20539;-82
2024/01/09 03:16:22;;;;;;;36.38;16.42;;;-7.30;99.90;;;;;;4982483;28;20090;-79
2024/01/09 03:19:09;;;;;;;34.97;16.27;;;-7.20;99.90;;;;;;4980966;28;20173;-76
2024/01/09 03:21:57;;;;;;;36.20;17.35;;;-7.30;85.10;;;;;;4987401;28;20166;-79
2024/01/09 03:24:45;;;;;;;36.13;17.73;;;-7.30;94.70;;;;;;4983926;28;20046;-81
2024/01/09 03:27:33;;;;;;;34.05;15.23;;;-7.30;1.00;;;;;;4978078;28;20163;-76
2024/01/09 03:30:22;;;;;;;32.38;16.52;;;-7.30;1.00;;;;;;4998000;28;20588;-81
2024/01/09 03:33:13;;;;;;;31.88;16.38;;;-7.40;1.00;;;;;;4990290;28;20562;-79
2024/01/09 03:36:05;;;;;;;33.63;15.93;;;-7.30;1.00;;;;;;4978713;28;20113;-80
2024/01/09 03:38:55;;;;;;;31.13;15.90;;;-7.30;1.00;;;;;;4980801;28;20046;-80
2024/01/09 03:41:48;;;;;;;32.22;16.42;;;-7.40;1.00;;;;;;4978286;28;20054;-80
2024/01/09 03:44:45;;;;;;;42.83;17.55;;;-7.40;1.00;;;;;;4977675;28;20047;-80
2024/01/09 03:47:37;;;;;;;41.08;17.00;;;-7.40;1.00;;;;;;4980338;28;20422;-80
2024/01/09 03:50:27;;;;;;;35.92;16.17;;;-7.40;1.00;;;;;;4978595;28;20062;-81
2024/01/09 03:53:20;;;;;;;34.13;17.02;;;-7.40;1.00;;;;;;4981365;28;20476;-80
2024/01/09 03:56:13;;;;;;;38.78;16.48;;;-7.40;1.00;;;;;;4979011;28;20096;-82
2024/01/09 03:59:02;;;;;;;32.88;16.88;;;-7.40;1.00;;;;;;4970248;28;20096;-81
2024/01/09 04:01:52;;;;;;;34.63;15.68;;;-7.30;99.90;;;;;;4985556;28;20039;-79
2024/01/09 04:04:43;;;;;;;35.63;16.17;;;-7.20;99.90;;;;;;4989859;28;20635;-82
2024/01/09 04:07:36;;;;;;;33.88;16.20;;;-7.20;99.90;;;;;;4985231;28;20569;-81
2024/01/09 04:10:23;;;;;;;38.63;17.02;;;-7.20;99.90;;;;;;4987472;28;20043;-79
2024/01/09 04:13:11;;;;;;;34.25;16.02;;;-7.20;99.90;;;;;;4983826;28;20034;-78
2024/01/09 04:15:58;;;;;;;36.55;16.35;;;-7.20;99.90;;;;;;4994752;28;20633;-80
2024/01/09 04:18:47;;;;;;;36.78;16.52;;;-7.20;99.90;;;;;;4993771;28;20038;-76
2024/01/09 04:21:34;;;;;;;35.65;15.35;;;-7.30;99.90;;;;;;5007442;28;20097;-80
2024/01/09 04:24:24;;;;;;;35.13;15.70;;;-7.30;99.90;;;;;;4989443;28;20209;-79
2024/01/09 04:27:11;;;;;;;37.92;16.25;;;-7.40;99.90;;;;;;4975737;28;20076;-81
2024/01/09 04:30:04;;;;;;;31.48;15.50;;;-7.40;99.90;;;;;;4984920;28;20042;-80
2024/01/09 04:32:57;;;;;;;31.35;14.98;;;-7.40;99.90;;;;;;4994272;28;20529;-79
2024/01/09 04:35:50;;;;;;;39.00;16.10;;;-7.50;99.90;;;;;;4992234;28;20053;-80
2024/01/09 04:38:48;;;;;;;40.08;16.70;;;-7.50;99.90;;;;;;4983822;28;20044;-80
2024/01/09 04:41:46;;;;;;;37.00;16.15;;;-7.50;99.90;;;;;;4980391;28;20058;-80
2024/01/09 04:44:34;;;;;;;35.05;15.60;;;-7.50;99.90;;;;;;4981695;28;20058;-80
2024/01/09 04:47:24;;;;;;;34.08;16.33;;;-7.50;99.90;;;;;;4982458;28;20118;-80
2024/01/09 04:50:15;;;;;;;34.33;15.40;;;-7.50;99.90;;;;;;4971946;28;20042;-81
2024/01/09 04:53:06;;;;;;;34.55;15.70;;;-7.50;99.90;;;;;;4981941;28;20132;-80
2024/01/09 04:55:57;;;;;;;31.65;15.70;;;-7.50;99.90;;;;;;4983954;28;20038;-79
2024/01/09 04:58:53;;;;;;;32.55;15.75;;;-7.50;99.90;;;;;;4985074;28;20042;-78
2024/01/09 05:01:41;;;;;;;35.08;16.38;;;-7.60;99.90;;;;;;4979174;28;20825;-81
2024/01/09 05:04:31;;;;;;;38.22;17.20;;;-7.50;99.90;;;;;;4982342;28;20534;-79
2024/01/09 05:07:18;;;;;;;34.40;15.77;;;-7.50;99.90;;;;;;4972650;28;20090;-79
2024/01/09 05:10:06;;;;;;;33.20;16.52;;;-7.50;99.90;;;;;;4991423;28;20052;-80
2024/01/09 05:12:58;;;;;;;39.72;16.75;;;-7.50;99.90;;;;;;4987006;28;20046;-80
2024/01/09 05:15:46;;;;;;;36.13;15.88;;;-7.50;99.90;;;;;;4980111;28;20755;-79
2024/01/09 05:18:36;;;;;;;37.55;16.50;;;-7.50;99.90;;;;;;4984109;28;20050;-81
2024/01/09 05:21:24;;;;;;;34.30;14.98;;;-7.50;52.20;;;;;;4979432;28;20103;-77
2024/01/09 05:24:16;;;;;;;34.17;15.55;;;-7.40;99.90;;;;;;4993257;28;20049;-81
2024/01/09 05:27:06;;;;;;;37.80;15.68;;;-7.40;5.70;;;;;;4991979;28;20561;-78
2024/01/09 05:29:59;;;;;;;34.08;15.55;;;-7.50;33.60;;;;;;4984634;28;20311;-80
2024/01/09 05:32:49;;;;;;;34.28;15.20;;;-7.50;99.90;;;;;;4995365;28;20043;-77
2024/01/09 05:35:40;;;;;;;34.25;15.77;;;-7.50;99.90;;;;;;4988795;28;20054;-79
2024/01/09 05:38:27;;;;;;;37.55;16.77;;;-7.50;99.90;;;;;;4977292;28;20128;-79
2024/01/09 05:41:20;;;;;;;40.13;16.45;;;-7.60;99.90;;;;;;4977187;28;20038;-79
2024/01/09 05:44:07;;;;;;;36.35;16.00;;;-7.60;99.90;;;;;;4978708;28;20137;-78
2024/01/09 05:46:57;;;;;;;34.88;15.75;;;-7.60;99.90;;;;;;4975364;28;20042;-78
2024/01/09 05:49:45;;;;;;;36.95;16.42;;;-7.60;76.40;;;;;;4972384;28;20043;-79
2024/01/09 05:52:37;;;;;;;32.88;15.18;;;-7.60;99.90;;;;;;4977016;28;20046;-77
2024/01/09 05:55:42;;;;;;;35.42;16.00;;;-7.60;86.30;;;;;;4980775;28;20054;-80
2024/01/09 05:58:34;;;;;;;36.60;15.40;;;-7.40;1.00;;;;;;4966449;28;20042;-79
2024/01/09 06:01:26;;;;;;;32.10;15.85;;;-7.40;1.00;;;;;;4968994;28;20046;-80
2024/01/09 06:04:23;;;;;;;33.13;14.88;;;-7.40;1.00;;;;;;4978373;28;20053;-80
2024/01/09 06:07:18;;;;;;;34.63;16.10;;;-7.30;1.00;;;;;;4970625;28;20498;-81
2024/01/09 06:10:06;;;;;;;36.22;15.38;;;-7.30;1.00;;;;;;4982158;28;20047;-80
2024/01/09 06:12:55;;;;;;;36.05;15.68;;;-7.40;99.90;;;;;;4982485;28;20077;-80
2024/01/09 06:15:42;;;;;;;33.35;15.07;;;-7.40;99.90;;;;;;4986571;28;20181;-77
2024/01/09 06:18:30;;;;;;;33.08;15.68;;;-7.40;99.90;;;;;;5000064;28;20043;-80
2024/01/09 06:21:20;;;;;;;32.30;14.23;;;-7.50;99.90;;;;;;5003181;28;20089;-82
2024/01/09 06:24:13;;;;;;;36.83;15.52;;;-7.50;99.90;;;;;;4988719;28;20046;-81
2024/01/09 06:27:02;;;;;;;37.53;17.15;;;-7.50;99.90;;;;;;4978481;28;20046;-81
2024/01/09 06:29:51;;;;;;;32.35;14.75;;;-7.50;99.90;;;;;;4993997;28;20051;-79
2024/01/09 06:32:42;;;;;;;35.22;14.35;;;-7.50;99.90;;;;;;4984299;28;20057;-79
2024/01/09 06:35:29;;;;;;;33.03;15.23;;;-7.50;99.90;;;;;;4976761;28;20201;-80
2024/01/09 06:38:25;;;;;;;36.17;15.55;;;-7.50;99.90;;;;;;4964182;28;20054;-80
2024/01/09 06:41:27;;;;;;;40.92;15.82;;;-7.50;99.90;;;;;;4975417;28;20042;-79
2024/01/09 06:44:28;;;;;;;34.85;15.43;;;-7.60;99.90;;;;;;4985441;28;20043;-79
2024/01/09 06:47:16;;;;;;;33.97;16.05;;;-7.60;99.90;;;;;;4977802;28;20077;-81
2024/01/09 06:50:22;;;;;;;39.85;16.75;;;-7.60;99.90;;;;;;4971524;28;20113;-78
2024/01/09 06:53:24;;;;;;;33.45;15.35;;;-7.60;99.90;;;;;;4972610;28;20054;-79
2024/01/09 06:56:44;;;;;;;29.65;15.20;;;-7.60;99.90;;;;;;4976154;28;20042;-78
2024/01/09 06:59:45;;;;;;;35.30;15.35;;;-7.60;99.90;;;;;;4956086;28;20053;-81
2024/01/09 07:02:35;;;;;;;37.80;15.55;;;-7.60;99.90;;;;;;4967160;28;20038;-79
2024/01/09 07:05:25;;;;;;;34.72;14.60;;;-7.70;99.90;;;;;;4990048;28;20046;-76
2024/01/09 07:08:19;;;;;;;36.05;16.08;;;-7.70;99.90;;;;;;5001954;28;20066;-80
2024/01/09 07:11:08;;;;;;;37.47;16.33;;;-7.70;99.90;;;;;;4994597;28;20050;-82
2024/01/09 07:14:01;;;;;;;33.50;15.93;;;-7.80;99.90;;;;;;4987517;28;20042;-80
2024/01/09 07:16:50;;;;;;;;;;;-7.80;99.90;;;;;;4973848;28;20652;-77
2024/01/09 07:19:37;;;;;;;38.50;15.75;;;-7.80;99.90;;;;;;4979455;28;19929;-78
2024/01/09 07:22:25;;;;;;;37.92;15.32;;;-7.70;99.90;;;;;;4961312;28;20038;-79
2024/01/09 07:25:15;;;;;;;37.95;16.45;;;-7.70;99.90;;;;;;4979397;28;20043;-78
2024/01/09 07:28:07;;;;;;;36.50;17.92;;;-7.70;99.90;;;;;;4979200;28;20531;-75
2024/01/09 07:31:04;;;;;;;39.88;16.45;;;-7.70;99.90;;;;;;4980543;28;20189;-79
2024/01/09 07:33:55;;;;;;;37.78;16.63;;;-7.60;99.90;;;;;;4969515;28;20050;-79
2024/01/09 07:36:43;;;;;;;36.25;15.85;;;-7.60;99.90;;;;;;4984772;28;20046;-77
2024/01/09 07:39:30;;;;;;;39.33;16.17;;;-7.50;99.90;;;;;;4984749;28;20121;-78
2024/01/09 07:42:18;;;;;;;37.70;16.48;;;-7.50;99.90;;;;;;4984519;28;20038;-78
2024/01/09 07:45:06;;;;;;;35.42;15.18;;;-7.40;99.90;;;;;;4980092;28;20054;-77
2024/01/09 07:47:53;;;;;;;39.03;16.15;;;-7.40;99.90;;;;;;4981706;28;20046;-77
2024/01/09 07:50:41;;;;;;;33.70;15.38;;;-7.30;99.90;;;;;;4983397;28;20655;-77
2024/01/09 07:53:33;;;;;;;31.75;15.60;;;-7.20;99.90;;;;;;4982907;28;20049;-80
2024/01/09 07:56:37;;;;;;;40.35;16.58;;;-7.00;99.90;;;;;;4983102;28;20046;-77
2024/01/09 07:59:43;;;;;;;40.20;17.15;;;-6.90;99.90;;;;;;4983032;28;20034;-77
2024/01/09 08:02:39;;;;;;;40.80;17.77;;;-6.70;90.40;;;;;;4992413;28;20062;-77
2024/01/09 08:05:34;;;;;;;33.22;15.68;;;-6.50;1.00;;;;;;4998102;28;20188;-81
2024/01/09 08:08:44;;;;;;;39.80;16.15;;;-6.40;1.00;;;;;;4986317;28;20065;-80
2024/01/09 08:11:46;;;;;;;42.33;17.63;;;-6.30;1.00;;;;;;4999523;28;20217;-77
2024/01/09 08:15:02;;;;;;;35.67;17.25;;;-6.30;99.90;;;;;;4979780;28;20809;-77
2024/01/09 08:17:56;;;;;;;34.58;17.00;;;-6.20;99.90;;;;;;4989526;28;20124;-80
2024/01/09 08:21:05;;;;;;;40.22;17.15;;;-6.10;99.90;;;;;;4978096;28;20038;-78
2024/01/09 08:24:34;;;;;;;38.45;16.83;;;-6.10;99.90;;;;;;4983781;28;20049;-79
2024/01/09 08:28:28;;;;;;;;;;;;;;;;;;;;;
2024/01/09 08:31:45;;;;;;;41.53;17.80;;;-5.80;99.90;;;;;;4970951;28;20105;-82
2024/01/09 08:34:55;;;;;;;38.60;16.55;;;-5.50;54.40;;;;;;4987392;28;20043;-79
2024/01/09 08:38:20;;;;;;;40.42;18.02;;;-5.40;1.00;;;;;;4971824;28;20519;-80
2024/01/09 08:41:28;;;;;;;40.85;17.25;;;-5.20;1.00;;;;;;4975392;28;20396;-80
2024/01/09 08:44:47;;;;;;;38.13;17.55;;;-5.00;1.00;;;;;;4973813;28;20153;-80
2024/01/09 08:48:00;;;;;;;;;;;;;;;;;;;;;
2024/01/09 08:51:15;;;;;;;35.72;16.63;;;-4.70;99.90;;;;;;4975628;28;20542;-78
2024/01/09 08:54:32;;;;;;;32.88;16.17;;;-4.50;99.90;;;;;;4970613;28;20081;-81
2024/01/09 08:57:52;;;;;;;37.33;16.95;;;-4.30;99.90;;;;;;4985683;28;20057;-78
2024/01/09 09:04:26;;;;;;;36.55;17.58;;;-4.00;99.90;;;;;;4979149;28;20046;-80
2024/01/09 09:07:25;;;;;;;43.13;18.13;;;-4.10;97.90;;;;;;4963264;28;20100;-77
2024/01/09 09:10:13;;;;;;;36.92;17.08;;;-4.00;78.20;;;;;;4976693;28;20989;-79
2024/01/09 09:13:01;;;;;;;36.40;17.60;;;-4.00;83.60;;;;;;4988777;28;20069;-77
2024/01/09 09:15:55;;;;;;;37.25;17.40;;;-3.90;50.90;;;;;;4970599;28;20042;-78
2024/01/09 09:18:44;;;;;;;41.38;19.73;;;-3.80;29.00;;;;;;4995573;28;20030;-78
2024/01/09 09:21:35;;;;;;;36.22;17.90;;;-3.80;16.90;;;;;;5009445;28;20050;-75
2024/01/09 09:24:23;;;;;;;38.30;19.00;;;-3.90;1.00;;;;;;4987044;28;20133;-79
2024/01/09 09:27:11;;;;;;;37.00;18.38;;;-4.00;14.20;;;;;;4984328;28;20046;-76
2024/01/09 09:30:07;;;;;;;35.67;18.50;;;-4.00;4.20;;;;;;4976668;28;20485;-78
2024/01/09 09:32:58;;;;;;;35.05;16.98;;;-4.10;1.00;;;;;;4978181;28;20035;-79
2024/01/09 09:35:46;;;;;;;34.15;17.90;;;-4.20;1.00;;;;;;4983852;28;20038;-82
2024/01/09 09:38:34;;;;;;;39.28;17.90;;;-4.10;20.10;;;;;;4975208;28;20042;-80
2024/01/09 09:41:22;;;;;;;39.38;18.70;;;-3.80;99.90;;;;;;4975749;28;20054;-79
2024/01/09 09:44:13;;;;;;;35.38;17.13;;;-3.50;1.00;;;;;;4967732;28;20042;-80
2024/01/09 09:47:11;;;;;;;45.78;18.77;;;-3.20;1.00;;;;;;4975601;28;20098;-78
2024/01/09 09:50:23;;;;;;;;;;;;;;;;;;;;;
2024/01/09 09:53:13;;;;;;;41.00;18.13;;;-2.90;1.00;;;;;;4976048;28;20060;-80
2024/01/09 09:56:02;;;;;;;36.38;18.67;;;-2.40;1.00;;;;;;4978183;28;20188;-79
2024/01/09 09:58:55;;;;;;;37.08;17.50;;;-1.80;1.00;;;;;;4972973;28;20050;-79
2024/01/09 10:02:24;;;;;;;32.75;17.00;;;-1.80;99.90;;;;;;4976579;28;20042;-79
2024/01/09 10:05:39;;;;;;;33.90;17.67;;;-1.70;99.90;;;;;;4981037;28;20042;-79
2024/01/09 10:08:37;;;;;;;;;;;-1.00;99.90;;;;;;4969800;28;20039;-79
2024/01/09 10:12:24;;;;;;;;;;;;;;;;;;;;;
2024/01/09 10:15:37;;;;;;;31.45;16.92;;;0.00;99.90;;;;;;4959039;28;20644;-81
2024/01/09 10:18:29;;;;;;;31.40;16.05;;;0.20;99.90;;;;;;4965606;28;20047;-78
2024/01/09 10:21:17;;;;;;;;;;;0.10;99.90;;;;;;4962758;28;20039;-77
2024/01/09 10:24:07;;;;;;;34.35;16.48;;;0.00;99.90;;;;;;4953057;28;19971;-78
2024/01/09 10:27:01;;;;;;;33.63;16.27;;;0.10;99.90;;;;;;4951900;28;20054;-78
2024/01/09 10:29:51;;;;;;;31.58;16.98;;;0.10;99.90;;;;;;4953816;28;20055;-78
2024/01/09 10:32:40;;;;;;;33.63;16.88;;;0.40;99.90;;;;;;4961123;28;20055;-80
2024/01/09 10:35:47;;;;;;;35.25;18.30;;;0.70;99.90;;;;;;4977261;28;20129;-81
2024/01/09 10:42:30;;;;;;;;;;;;;;;;;;;;;
2024/01/09 10:45:30;;;;;;;36.90;17.55;;;0.30;99.90;;;;;;5000996;28;20050;-79
2024/01/09 10:48:22;;;;;;;33.92;17.63;;;0.50;99.90;;;;;;4988533;28;20250;-77
2024/01/09 10:51:14;;;;;;;34.92;17.58;;;0.40;99.90;;;;;;4975483;28;20046;-80
2024/01/09 10:54:04;;;;;;;34.17;17.98;;;0.40;99.90;;;;;;4969371;28;20043;-81
2024/01/09 10:56:55;;;;;;;35.92;16.77;;;0.70;99.90;;;;;;4996235;28;20073;-76
2024/01/09 10:59:45;;;;;;;30.88;16.70;;;0.80;99.90;;;;;;4985072;28;20117;-81
2024/01/09 11:02:36;;;;;;;30.30;17.52;;;1.20;99.90;;;;;;4974707;28;20045;-81
2024/01/09 11:05:26;;;;;;;31.08;16.73;;;1.80;99.90;;;;;;4986070;28;20038;-79
2024/01/09 11:08:27;;;;;;;33.65;17.30;;;1.40;99.90;;;;;;4992699;28;20053;-77
2024/01/09 11:11:18;;;;;;;30.63;17.52;;;1.50;99.90;;;;;;4989385;28;20073;-83
2024/01/09 11:14:12;;;;;;;32.20;17.33;;;1.20;99.90;;;;;;4997853;28;20069;-78
2024/01/09 11:17:08;;;;;;;35.33;18.02;;;1.10;99.90;;;;;;4993982;28;20050;-80
2024/01/09 11:20:14;;;;;;;36.67;15.82;;;1.50;99.90;;;;;;4996992;28;20047;-81
2024/01/09 11:23:05;;;;;;;27.85;15.65;;;1.30;99.90;;;;;;4994893;28;20043;-81
2024/01/09 11:25:54;;;;;;;30.02;15.88;;;1.30;99.90;;;;;;4997270;28;20050;-82
2024/01/09 11:28:44;;;;;;;31.58;15.65;;;1.40;99.90;;;;;;4980173;28;20042;-80
2024/01/09 11:31:48;;;;;;;;;;;1.60;99.90;;;;;;4999612;28;20042;-82
2024/01/09 11:35:14;;;;;;;30.58;15.00;;;1.20;99.90;;;;;;5001203;28;19932;-81
2024/01/09 11:38:12;;;;;;;18.90;11.02;;;1.20;99.90;;;;;;4997111;28;20111;-79
2024/01/09 11:41:10;;;;;;;26.17;14.38;;;1.40;99.90;;;;;;4993334;28;20114;-80
2024/01/09 11:44:15;;;;;;;27.83;14.38;;;1.80;99.90;;;;;;5000424;28;20035;-79
2024/01/09 11:47:56;;;;;;;24.73;13.93;;;2.10;99.90;;;;;;5005013;28;20042;-81
2024/01/09 11:51:03;;;;;;;26.85;14.30;;;2.50;99.90;;;;;;4992476;28;20050;-82
2024/01/09 11:54:05;;;;;;;;;;;;;;;;;;;;;
2024/01/09 11:57:03;;;;;;;22.25;12.90;;;1.90;99.90;;;;;;4992574;28;20074;-80
2024/01/09 11:59:51;;;;;;;24.23;13.43;;;2.40;99.90;;;;;;4993071;28;20133;-77
2024/01/09 12:02:39;;;;;;;26.85;14.30;;;2.00;99.90;;;;;;4994088;28;20126;-76
2024/01/09 12:05:38;;;;;;;27.67;14.18;;;1.70;99.90;;;;;;5003117;28;20043;-76
2024/01/09 12:08:53;;;;;;;23.70;13.98;;;1.60;99.90;;;;;;4992902;28;20030;-78
2024/01/09 12:11:54;;;;;;;26.52;14.10;;;1.70;99.90;;;;;;5000584;28;20066;-79
2024/01/09 12:15:26;;;;;;;28.38;15.20;;;2.10;99.90;;;;;;5004184;28;20054;-80
2024/01/09 12:18:28;;;;;;;28.05;13.55;;;2.00;99.90;;;;;;4989534;28;20027;-77
2024/01/09 12:22:00;;;;;;;22.70;13.32;;;2.30;99.90;;;;;;4996479;28;20146;-76
2024/01/09 12:24:55;;;;;;;27.75;13.68;;;2.80;99.90;;;;;;4989876;28;20043;-77
2024/01/09 12:27:46;;;;;;;28.00;14.32;;;3.00;99.90;;;;;;4985412;28;20640;-78
2024/01/09 12:30:41;;;;;;;28.88;13.98;;;2.50;99.90;;;;;;4976397;28;20056;-79
2024/01/09 12:33:49;;;;;;;27.15;13.38;;;2.30;99.90;;;;;;4973354;28;20047;-78
2024/01/09 12:37:05;;;;;;;24.00;13.57;;;2.00;99.90;;;;;;4977784;28;20050;-80
2024/01/09 12:43:39;;;;;;;25.42;13.20;;;2.50;99.90;;;;;;4987210;28;20697;-80
2024/01/09 12:46:48;;;;;;;25.73;12.35;;;2.00;99.90;;;;;;4986081;28;20050;-78
2024/01/09 12:51:10;;;;;;;25.38;12.45;;;2.00;99.90;;;;;;4986473;28;20051;-81
2024/01/09 12:54:30;;;;;;;24.65;12.68;;;1.80;99.90;;;;;;4989701;28;20168;-80
2024/01/09 12:57:43;;;;;;;23.92;11.85;;;1.90;99.90;;;;;;4990453;28;20085;-80
2024/01/09 13:01:06;;;;;;;23.23;12.25;;;2.30;99.90;;;;;;4974842;28;20050;-78
2024/01/09 13:04:35;;;;;;;19.58;11.32;;;2.20;99.90;;;;;;4991985;28;20049;-82
2024/01/09 13:08:05;;;;;;;23.75;12.48;;;2.20;99.90;;;;;;4970999;28;20042;-76
2024/01/09 13:11:29;;;;;;;;;;;;;;;;;;;;;
2024/01/09 13:14:37;;;;;;;23.00;11.75;;;2.60;99.90;;;;;;5002689;28;20038;-78
2024/01/09 13:17:44;;;;;;;21.00;11.80;;;3.00;99.90;;;;;;4982378;28;20051;-80
2024/01/09 13:21:22;;;;;;;21.75;12.30;;;3.40;99.90;;;;;;4970663;28;20447;-79
2024/01/09 13:24:37;;;;;;;22.42;12.60;;;3.30;1.00;;;;;;4978746;28;20234;-79
2024/01/09 13:27:38;;;;;;;21.83;11.83;;;2.40;99.90;;;;;;4980483;28;20037;-79
2024/01/09 13:30:49;;;;;;;25.17;11.73;;;2.40;99.90;;;;;;4991056;28;20051;-79
2024/01/09 13:33:52;;;;;;;;;;;2.60;99.90;;;;;;4980964;28;20407;-80
2024/01/09 13:36:59;;;;;;;22.40;11.45;;;2.40;99.90;;;;;;4977327;28;20011;-77
2024/01/09 13:40:10;;;;;;;;;;;;;;;;;;;;;
2024/01/09 13:43:20;;;;;;;;;;;;;;;;;;;;;
2024/01/09 13:46:23;;;;;;;20.85;11.00;;;2.50;99.90;;;;;;4979372;28;20044;-77
2024/01/09 13:49:12;;;;;;;21.98;11.18;;;2.50;99.90;;;;;;4978433;28;20129;-77
2024/01/09 13:52:01;;;;;;;23.48;11.18;;;2.20;99.90;;;;;;4975603;28;20058;-77
2024/01/09 13:54:54;;;;;;;23.42;12.18;;;1.90;99.90;;;;;;4983102;28;20124;-78
2024/01/09 13:57:44;;;;;;;19.70;10.38;;;1.70;99.90;;;;;;4986720;28;20055;-77
2024/01/09 14:00:33;;;;;;;20.02;11.02;;;2.20;99.90;;;;;;4957594;28;20185;-77
2024/01/09 14:03:22;;;;;;;25.63;13.25;;;2.50;99.90;;;;;;4982967;28;20042;-78
2024/01/09 14:06:11;;;;;;;22.95;11.90;;;2.60;99.90;;;;;;4995725;28;20073;-79
2024/01/09 14:09:12;;;;;;;18.30;11.23;;;2.80;99.90;;;;;;4990762;28;20057;-79
2024/01/09 14:11:59;;;;;;;20.70;11.07;;;2.90;99.90;;;;;;4982400;28;20104;-79
2024/01/09 14:15:13;;;;;;;18.27;9.80;;;2.30;99.90;;;;;;4978725;28;20054;-78
2024/01/09 14:18:14;;;;;;;20.42;10.70;;;2.30;99.90;;;;;;4989977;28;20192;-77
2024/01/09 14:21:04;;;;;;;18.85;11.10;;;2.20;99.90;;;;;;4958866;28;20051;-80
2024/01/09 14:23:55;;;;;;;21.48;10.35;;;2.30;99.90;;;;;;4962936;28;20043;-80
2024/01/09 14:26:43;;;;;;;17.08;10.30;;;2.50;99.90;;;;;;4971499;28;20135;-80
2024/01/09 14:29:33;;;;;;;20.45;11.27;;;2.50;99.90;;;;;;4989577;28;20039;-80
2024/01/09 14:32:20;;;;;;;21.48;11.27;;;2.60;99.90;;;;;;4983509;28;20134;-78
2024/01/09 14:35:08;;;;;;;22.35;11.60;;;2.10;99.90;;;;;;4990900;28;20062;-75
2024/01/09 14:37:56;;;;;;;22.13;11.73;;;1.80;99.90;;;;;;5001539;28;20113;-78
2024/01/09 14:40:44;;;;;;;21.77;11.00;;;1.60;99.90;;;;;;4987447;28;20204;-77
2024/01/09 14:43:32;;;;;;;21.33;10.35;;;1.20;99.90;;;;;;4983551;28;20042;-79
2024/01/09 14:46:23;;;;;;;25.67;14.38;;;0.90;99.90;;;;;;4975875;28;20487;-78
2024/01/09 14:49:27;;;;;;;22.88;11.63;;;0.60;99.90;;;;;;4964350;28;20042;-81
2024/01/09 14:52:23;;;;;;;21.75;11.57;;;0.00;99.90;;;;;;4971566;28;20101;-79
2024/01/09 14:55:25;;;;;;;23.33;12.93;;;-0.50;99.90;;;;;;4991077;28;20137;-82
2024/01/09 14:58:17;;;;;;;28.65;13.43;;;-1.00;99.90;;;;;;4984666;28;20062;-81
2024/01/09 15:01:24;;;;;;;33.83;16.85;;;-1.20;99.90;;;;;;4970823;28;20544;-80
2024/01/09 15:04:25;;;;;;;25.85;13.70;;;-1.40;99.90;;;;;;4971122;28;20467;-78
2024/01/09 15:07:18;;;;;;;25.30;12.40;;;-1.60;99.90;;;;;;4983440;28;20070;-77
2024/01/09 15:10:08;;;;;;;23.02;11.88;;;-1.70;99.90;;;;;;4983930;28;20049;-80
2024/01/09 15:12:58;;;;;;;26.80;12.73;;;-1.80;99.90;;;;;;4973548;28;20159;-80
2024/01/09 15:15:47;;;;;;;24.23;13.18;;;-1.80;99.90;;;;;;4983964;28;20499;-80
2024/01/09 15:18:35;;;;;;;24.75;11.98;;;-1.90;99.90;;;;;;4983656;28;20038;-76
2024/01/09 15:21:24;;;;;;;25.17;12.27;;;-2.10;99.90;;;;;;4974439;28;20050;-77
2024/01/09 15:24:13;;;;;;;21.85;12.20;;;-2.30;99.90;;;;;;4980823;28;20151;-75
2024/01/09 15:27:00;;;;;;;25.05;12.13;;;-2.40;99.90;;;;;;4976878;28;20197;-78